Time;durP1;ratioP1;P1;durP2;ratioP2;P2;SDS_P1;SDS_P2;PMS_P1;PMS_P2;Temp;Humidity;BMP_temperature;BMP_pressure;BME280_temperature;BME280_humidity;BME280_pressure;Samples;Min_cycle;Max_cycle;Signal;HPM_P1;HPM_P2
2022/01/09 00:00:15;;;;;;;101.65;52.88;;;1.00;99.90;;;;;;5017706;28;20198;-93
2022/01/09 00:02:41;;;;;;;89.30;51.28;;;1.00;99.90;;;;;;5016698;28;20320;-95
2022/01/09 00:05:08;;;;;;;86.18;50.45;;;1.00;99.90;;;;;;5034375;28;20205;-92
2022/01/09 00:07:34;;;;;;;83.75;48.40;;;1.00;99.90;;;;;;5017043;28;20248;-94
2022/01/09 00:10:00;;;;;;;88.63;47.27;;;1.00;99.90;;;;;;5017665;28;20244;-92
2022/01/09 00:12:26;;;;;;;93.27;46.80;;;1.00;99.90;;;;;;5024756;28;20186;-92
2022/01/09 00:14:52;;;;;;;85.32;47.75;;;1.00;99.90;;;;;;5016815;28;20442;-92
2022/01/09 00:17:19;;;;;;;94.70;50.67;;;1.00;99.90;;;;;;5034618;28;20551;-93
2022/01/09 00:19:45;;;;;;;99.88;51.47;;;1.00;99.90;;;;;;5016951;28;20252;-92
2022/01/09 00:22:12;;;;;;;86.28;47.47;;;1.00;99.90;;;;;;5016482;28;20186;-92
2022/01/09 00:24:38;;;;;;;96.00;49.50;;;1.00;99.90;;;;;;5035551;28;20178;-92
2022/01/09 00:27:04;;;;;;;91.67;49.67;;;1.00;99.90;;;;;;5022618;28;20186;-95
2022/01/09 00:29:29;;;;;;;84.70;46.47;;;1.00;99.90;;;;;;5021025;28;20474;-95
2022/01/09 00:31:55;;;;;;;92.27;49.87;;;1.00;99.90;;;;;;5037683;28;20245;-92
2022/01/09 00:34:21;;;;;;;91.47;51.20;;;1.00;99.90;;;;;;5040290;28;20624;-92
2022/01/09 00:36:47;;;;;;;85.15;48.63;;;1.00;99.90;;;;;;5028070;28;20250;-92
2022/01/09 00:39:13;;;;;;;106.90;54.47;;;1.10;99.90;;;;;;5025796;28;20179;-92
2022/01/09 00:41:39;;;;;;;90.27;50.50;;;1.00;99.90;;;;;;5025905;28;20426;-91
2022/01/09 00:44:05;;;;;;;89.32;50.45;;;1.00;99.90;;;;;;5032518;28;20269;-94
2022/01/09 00:46:33;;;;;;;99.57;50.90;;;1.10;99.90;;;;;;5030456;28;20236;-92
2022/01/09 00:49:00;;;;;;;84.57;51.97;;;1.10;99.90;;;;;;5022260;28;20506;-94
2022/01/09 00:51:26;;;;;;;100.63;50.58;;;1.10;99.90;;;;;;5037533;28;20190;-93
2022/01/09 00:53:52;;;;;;;98.72;52.40;;;1.10;99.90;;;;;;5020386;28;20182;-92
2022/01/09 00:56:17;;;;;;;105.73;55.43;;;1.10;99.90;;;;;;5021893;28;20683;-94
2022/01/09 00:58:43;;;;;;;102.17;54.30;;;1.10;99.90;;;;;;5020448;28;20492;-94
2022/01/09 01:01:09;;;;;;;97.63;52.73;;;1.10;99.90;;;;;;5020327;28;20191;-94
2022/01/09 01:03:34;;;;;;;99.00;51.90;;;1.10;99.90;;;;;;5020134;28;20229;-95
2022/01/09 01:06:00;;;;;;;90.97;52.40;;;1.10;99.90;;;;;;5037764;28;21349;-94
2022/01/09 01:08:26;;;;;;;103.00;55.00;;;1.10;99.90;;;;;;5020282;28;20194;-95
2022/01/09 01:10:52;;;;;;;93.57;51.77;;;1.10;99.90;;;;;;5023245;28;20439;-94
2022/01/09 01:13:18;;;;;;;103.95;55.92;;;1.10;99.90;;;;;;5020684;28;20186;-93
2022/01/09 01:15:44;;;;;;;103.03;52.70;;;1.10;99.90;;;;;;5037570;28;20543;-95
2022/01/09 01:18:10;;;;;;;99.77;53.63;;;1.10;99.90;;;;;;5037174;28;20221;-91
2022/01/09 01:20:36;;;;;;;103.43;54.70;;;1.10;99.90;;;;;;5020280;28;20423;-94
2022/01/09 01:23:02;;;;;;;103.97;56.10;;;1.10;99.90;;;;;;5019859;28;20432;-94
2022/01/09 01:25:29;;;;;;;101.68;52.10;;;1.10;99.90;;;;;;5020216;28;20202;-91
2022/01/09 01:27:55;;;;;;;93.80;52.78;;;1.10;99.90;;;;;;5021368;28;20261;-92
2022/01/09 01:30:21;;;;;;;98.82;52.30;;;1.00;99.90;;;;;;5019930;28;20191;-92
2022/01/09 01:32:47;;;;;;;99.18;54.13;;;1.00;99.90;;;;;;5042016;28;20182;-93
2022/01/09 01:35:13;;;;;;;102.47;51.75;;;1.00;99.90;;;;;;5020560;28;20223;-94
2022/01/09 01:37:41;;;;;;;102.65;55.03;;;1.00;99.90;;;;;;5020166;28;20640;-94
2022/01/09 01:40:16;;;;;;;109.93;56.50;;;1.00;99.90;;;;;;5023888;28;20195;-92
2022/01/09 01:42:43;;;;;;;109.60;57.88;;;1.00;99.90;;;;;;5032505;28;20186;-94
2022/01/09 01:45:10;;;;;;;114.18;54.40;;;1.00;99.90;;;;;;5019784;28;20209;-92
2022/01/09 01:47:36;;;;;;;106.38;55.28;;;1.10;99.90;;;;;;5019500;28;20268;-94
2022/01/09 01:50:04;;;;;;;98.90;54.85;;;1.00;99.90;;;;;;5019690;28;20194;-95
2022/01/09 01:52:36;;;;;;;92.35;53.03;;;1.10;99.90;;;;;;5019115;28;20191;-94
2022/01/09 01:55:04;;;;;;;87.75;51.60;;;1.10;99.90;;;;;;5035726;28;20194;-92
2022/01/09 01:57:32;;;;;;;95.38;51.63;;;1.00;99.90;;;;;;5020027;28;20563;-94
2022/01/09 01:59:58;;;;;;;90.60;47.88;;;1.00;99.90;;;;;;5020621;28;20211;-92
2022/01/09 02:02:25;;;;;;;89.78;49.60;;;1.00;99.90;;;;;;5019261;28;20240;-92
2022/01/09 02:04:51;;;;;;;101.82;51.53;;;1.00;99.90;;;;;;5036433;28;20182;-93
2022/01/09 02:07:17;;;;;;;100.63;52.15;;;1.00;99.90;;;;;;5021851;28;20253;-92
2022/01/09 02:09:44;;;;;;;103.63;53.97;;;1.00;99.90;;;;;;5019580;28;20210;-94
2022/01/09 02:12:10;;;;;;;100.15;51.65;;;1.00;99.90;;;;;;5018724;28;20460;-92
2022/01/09 02:14:38;;;;;;;109.03;54.20;;;1.00;99.90;;;;;;5021781;28;20179;-92
2022/01/09 02:17:04;;;;;;;104.25;56.70;;;1.10;99.90;;;;;;5018858;28;20223;-94
2022/01/09 02:19:30;;;;;;;110.93;57.42;;;1.00;99.90;;;;;;5019072;28;20170;-92
2022/01/09 02:21:58;;;;;;;99.80;54.80;;;1.00;99.90;;;;;;5030580;28;20186;-92
2022/01/09 02:24:25;;;;;;;102.25;54.83;;;1.00;99.90;;;;;;5031215;28;20412;-92
2022/01/09 02:26:51;;;;;;;96.50;52.00;;;1.00;99.90;;;;;;5018604;28;20633;-93
2022/01/09 02:29:17;;;;;;;96.60;53.78;;;1.00;99.90;;;;;;5022771;28;20161;-92
2022/01/09 02:31:44;;;;;;;90.93;49.50;;;1.00;99.90;;;;;;5036045;28;20206;-92
2022/01/09 02:34:11;;;;;;;118.03;55.38;;;1.00;99.90;;;;;;5018453;28;20261;-92
2022/01/09 02:36:36;;;;;;;99.28;55.50;;;1.00;99.90;;;;;;5018181;28;20197;-94
2022/01/09 02:39:03;;;;;;;98.30;53.07;;;1.00;99.90;;;;;;5018198;28;20244;-93
2022/01/09 02:41:28;;;;;;;100.47;56.05;;;0.90;99.90;;;;;;5035702;28;20447;-94
2022/01/09 02:43:54;;;;;;;94.67;54.20;;;0.90;99.90;;;;;;5020370;28;20179;-93
2022/01/09 02:48:50;;;;;;;105.00;52.58;;;0.90;99.90;;;;;;5035697;28;20270;-93
2022/01/09 02:51:17;;;;;;;101.78;53.03;;;0.90;99.90;;;;;;5026534;28;20202;-94
2022/01/09 02:53:47;;;;;;;90.63;49.80;;;0.90;99.90;;;;;;5018278;28;20186;-93
2022/01/09 02:56:13;;;;;;;95.10;50.97;;;0.90;99.90;;;;;;5018412;28;20198;-93
2022/01/09 02:58:39;;;;;;;99.07;52.30;;;0.90;99.90;;;;;;5044916;28;20224;-93
2022/01/09 03:01:06;;;;;;;110.03;53.00;;;0.90;99.90;;;;;;5035034;28;20202;-92
2022/01/09 03:03:32;;;;;;;106.38;53.45;;;0.90;99.90;;;;;;5039085;28;20191;-96
2022/01/09 03:05:58;;;;;;;102.22;55.13;;;0.90;99.90;;;;;;5052645;28;20193;-92
2022/01/09 03:08:24;;;;;;;98.60;51.40;;;0.90;99.90;;;;;;5019717;28;20185;-94
2022/01/09 03:10:50;;;;;;;99.87;52.30;;;0.90;99.90;;;;;;5020590;28;20193;-96
2022/01/09 03:13:16;;;;;;;89.93;49.50;;;0.90;99.90;;;;;;5018053;28;20182;-93
2022/01/09 03:15:42;;;;;;;90.13;50.40;;;0.90;99.90;;;;;;5017663;28;20237;-94
2022/01/09 03:18:08;;;;;;;103.43;51.87;;;0.90;99.90;;;;;;5017649;28;20485;-95
2022/01/09 03:20:33;;;;;;;87.40;48.20;;;0.90;99.90;;;;;;5017920;28;21097;-94
2022/01/09 03:22:59;;;;;;;87.97;47.67;;;1.00;99.90;;;;;;5038458;28;20185;-93
2022/01/09 03:25:26;;;;;;;80.67;44.60;;;1.00;99.90;;;;;;5018057;28;20195;-95
2022/01/09 03:27:53;;;;;;;83.75;45.10;;;1.00;99.90;;;;;;5017707;28;20187;-94
2022/01/09 03:30:21;;;;;;;85.25;44.03;;;1.00;99.90;;;;;;5017496;28;20244;-92
2022/01/09 03:32:49;;;;;;;79.28;43.25;;;1.00;99.90;;;;;;5017771;28;20193;-93
2022/01/09 03:35:17;;;;;;;80.15;42.85;;;0.90;99.90;;;;;;5036700;28;20272;-95
2022/01/09 03:37:44;;;;;;;81.72;44.03;;;0.90;99.90;;;;;;5034841;28;20252;-92
2022/01/09 03:40:14;;;;;;;82.57;42.75;;;0.90;99.90;;;;;;5017430;28;20201;-92
2022/01/09 03:42:40;;;;;;;75.13;40.47;;;1.00;99.90;;;;;;5034988;28;20183;-94
2022/01/09 03:45:08;;;;;;;72.40;40.20;;;1.00;99.90;;;;;;5017009;28;20255;-92
2022/01/09 03:47:35;;;;;;;64.15;36.85;;;1.00;99.90;;;;;;5019187;28;20970;-92
2022/01/09 03:50:05;;;;;;;67.32;34.55;;;1.00;99.90;;;;;;5017148;28;20206;-93
2022/01/09 03:52:31;;;;;;;69.95;39.75;;;0.90;99.90;;;;;;5017016;28;20186;-93
2022/01/09 03:54:57;;;;;;;72.37;37.63;;;0.90;99.90;;;;;;5017274;28;20217;-92
2022/01/09 03:57:23;;;;;;;71.47;38.57;;;0.90;99.90;;;;;;5036896;28;20479;-93
2022/01/09 03:59:49;;;;;;;77.77;39.20;;;1.00;99.90;;;;;;5037637;28;20945;-94
2022/01/09 04:02:15;;;;;;;77.67;41.47;;;1.00;99.90;;;;;;5024530;28;20780;-93
2022/01/09 04:04:40;;;;;;;76.70;40.47;;;1.00;99.90;;;;;;5038947;28;20295;-93
2022/01/09 04:07:06;;;;;;;78.67;42.23;;;1.00;99.90;;;;;;5041998;28;20249;-93
2022/01/09 04:09:43;;;;;;;78.40;40.33;;;1.00;99.90;;;;;;5024066;28;20527;-92
2022/01/09 04:12:17;;;;;;;74.13;39.50;;;1.00;99.90;;;;;;5020742;28;20179;-92
2022/01/09 04:14:47;;;;;;;74.25;38.15;;;1.00;99.90;;;;;;5038812;28;20190;-92
2022/01/09 04:18:18;;;;;;;69.75;39.08;;;1.00;99.90;;;;;;5021236;28;20627;-94
2022/01/09 04:20:12;;;;;;;77.60;38.53;;;1.00;99.90;;;;;;5031873;28;20202;-94
2022/01/09 04:22:38;;;;;;;61.10;31.23;;;1.00;99.90;;;;;;5021630;28;20193;-95
2022/01/09 04:25:05;;;;;;;55.07;29.20;;;1.00;99.90;;;;;;5038417;28;20444;-92
2022/01/09 04:27:32;;;;;;;68.38;31.42;;;0.90;99.90;;;;;;5021173;28;20426;-92
2022/01/09 04:29:57;;;;;;;64.70;30.02;;;0.90;99.90;;;;;;5025276;28;20286;-92
2022/01/09 04:32:24;;;;;;;65.47;27.83;;;0.80;99.90;;;;;;5030368;28;20190;-92
2022/01/09 04:34:50;;;;;;;74.78;32.25;;;0.80;99.90;;;;;;5036457;28;20191;-92
2022/01/09 04:37:16;;;;;;;101.07;41.83;;;0.80;99.90;;;;;;5039782;28;20218;-94
2022/01/09 04:39:42;;;;;;;89.33;37.63;;;0.70;99.90;;;;;;5055052;28;20410;-91
2022/01/09 04:42:08;;;;;;;77.03;28.90;;;0.70;99.90;;;;;;5026947;28;20182;-92
2022/01/09 04:44:34;;;;;;;79.18;32.45;;;0.60;99.90;;;;;;5037896;28;20407;-93
2022/01/09 04:47:05;;;;;;;74.87;26.20;;;0.60;99.90;;;;;;5020267;28;20662;-94
2022/01/09 04:49:37;;;;;;;57.53;28.75;;;0.50;99.90;;;;;;5024728;28;20193;-94
2022/01/09 04:52:05;;;;;;;57.55;26.95;;;0.50;99.90;;;;;;5021532;28;20218;-92
2022/01/09 04:54:31;;;;;;;74.85;30.35;;;0.40;99.90;;;;;;5020266;28;20213;-94
2022/01/09 04:56:57;;;;;;;64.20;26.73;;;0.40;99.90;;;;;;5020161;28;20273;-93
2022/01/09 04:59:22;;;;;;;53.40;24.73;;;0.40;99.90;;;;;;5020236;28;20205;-94
2022/01/09 05:01:48;;;;;;;60.47;28.10;;;0.30;99.90;;;;;;5020031;28;20420;-92
2022/01/09 05:04:14;;;;;;;68.60;30.17;;;0.30;99.90;;;;;;5019916;28;20174;-92
2022/01/09 05:06:40;;;;;;;98.10;30.43;;;0.30;99.90;;;;;;5031950;28;20454;-93
2022/01/09 05:09:05;;;;;;;77.60;28.47;;;0.30;99.90;;;;;;5034471;28;20406;-93
2022/01/09 05:11:31;;;;;;;153.90;31.43;;;0.30;99.90;;;;;;5039605;28;20553;-92
2022/01/09 05:13:57;;;;;;;124.30;51.40;;;0.30;99.90;;;;;;5019710;28;20175;-94
2022/01/09 05:16:22;;;;;;;71.23;27.10;;;0.30;99.90;;;;;;5019947;28;20198;-93
2022/01/09 05:19:02;;;;;;;70.70;26.70;;;0.30;99.90;;;;;;5037290;28;20703;-92
2022/01/09 05:21:27;;;;;;;95.05;31.25;;;0.20;99.90;;;;;;5023896;28;20679;-92
2022/01/09 05:23:53;;;;;;;106.27;31.53;;;0.30;99.90;;;;;;5019679;28;20190;-92
2022/01/09 05:26:19;;;;;;;80.23;31.87;;;0.30;99.90;;;;;;5019267;28;20428;-93
2022/01/09 05:28:45;;;;;;;88.85;32.30;;;0.20;99.90;;;;;;5019922;28;20658;-95
2022/01/09 05:31:11;;;;;;;72.03;30.03;;;0.20;99.90;;;;;;5019636;28;20199;-92
2022/01/09 05:33:36;;;;;;;87.57;29.63;;;0.20;99.90;;;;;;5019894;28;20420;-92
2022/01/09 05:36:03;;;;;;;73.23;32.90;;;0.20;99.90;;;;;;5028152;28;20238;-94
2022/01/09 05:38:29;;;;;;;67.35;29.85;;;0.20;99.90;;;;;;5051146;28;20483;-94
2022/01/09 05:40:55;;;;;;;70.27;31.33;;;0.20;99.90;;;;;;5026239;28;20228;-93
2022/01/09 05:43:21;;;;;;;68.70;29.50;;;0.20;99.90;;;;;;5046863;28;20750;-94
2022/01/09 05:45:46;;;;;;;89.75;34.75;;;0.10;99.90;;;;;;5040429;28;20415;-94
2022/01/09 05:48:12;;;;;;;73.60;31.20;;;0.10;99.90;;;;;;5027860;28;20257;-95
2022/01/09 05:50:38;;;;;;;75.20;29.70;;;0.10;99.90;;;;;;5022091;28;20198;-94
2022/01/09 05:53:04;;;;;;;61.60;30.10;;;0.10;99.90;;;;;;5019262;28;20229;-92
2022/01/09 05:55:30;;;;;;;86.80;33.50;;;0.10;99.90;;;;;;5019515;28;20305;-92
2022/01/09 05:57:56;;;;;;;68.75;28.75;;;0.10;99.90;;;;;;5019314;28;20479;-93
2022/01/09 06:00:22;;;;;;;62.53;26.37;;;0.10;99.90;;;;;;5035765;28;20220;-95
2022/01/09 06:02:48;;;;;;;69.40;26.95;;;0.10;99.90;;;;;;5039743;28;20435;-91
2022/01/09 06:05:14;;;;;;;73.93;26.17;;;0.00;99.90;;;;;;5019271;28;20198;-94
2022/01/09 06:07:41;;;;;;;61.67;27.33;;;0.00;99.90;;;;;;5018819;28;20253;-93
2022/01/09 06:10:08;;;;;;;58.17;23.95;;;-0.10;99.90;;;;;;5019052;28;20451;-92
2022/01/09 06:12:34;;;;;;;76.05;29.80;;;-0.10;99.90;;;;;;5018716;28;20182;-93
2022/01/09 06:15:00;;;;;;;91.23;30.53;;;-0.10;99.90;;;;;;5022234;28;20190;-92
2022/01/09 06:17:25;;;;;;;233.43;99.93;;;-0.10;99.90;;;;;;5019066;28;20589;-93
2022/01/09 06:19:51;;;;;;;120.77;43.67;;;-0.10;99.90;;;;;;5019206;28;20205;-92
2022/01/09 06:22:18;;;;;;;78.10;35.72;;;-0.20;99.90;;;;;;5034508;28;20187;-92
2022/01/09 06:24:50;;;;;;;64.85;27.98;;;-0.10;99.90;;;;;;5019027;28;20195;-93
2022/01/09 06:27:17;;;;;;;127.72;36.63;;;-0.10;99.90;;;;;;5035416;28;20551;-92
2022/01/09 06:29:43;;;;;;;98.35;29.50;;;-0.10;99.90;;;;;;5040220;28;20209;-92
2022/01/09 06:32:09;;;;;;;66.10;29.20;;;-0.10;99.90;;;;;;5019384;28;20194;-93
2022/01/09 06:34:35;;;;;;;69.82;28.02;;;-0.10;99.90;;;;;;5018061;28;20420;-94
2022/01/09 06:37:01;;;;;;;77.47;26.60;;;-0.10;99.90;;;;;;5021200;28;20218;-93
2022/01/09 06:39:27;;;;;;;81.88;27.45;;;-0.10;99.90;;;;;;5036443;28;20185;-93
2022/01/09 06:41:52;;;;;;;71.83;28.20;;;-0.10;99.90;;;;;;5033548;28;20175;-93
2022/01/09 06:44:18;;;;;;;59.23;27.87;;;-0.10;99.90;;;;;;5026344;28;20182;-92
2022/01/09 06:46:44;;;;;;;66.10;27.73;;;-0.20;99.90;;;;;;5018081;28;20443;-94
2022/01/09 06:49:10;;;;;;;79.87;27.50;;;-0.20;99.90;;;;;;5025963;28;20171;-93
2022/01/09 06:51:36;;;;;;;69.65;27.55;;;-0.20;99.90;;;;;;5027842;28;20190;-94
2022/01/09 06:54:02;;;;;;;60.80;26.23;;;-0.30;99.90;;;;;;5018750;28;20175;-94
2022/01/09 06:56:28;;;;;;;65.83;26.23;;;-0.30;99.90;;;;;;5016183;28;20432;-92
2022/01/09 06:58:53;;;;;;;66.00;29.07;;;-0.30;99.90;;;;;;5018822;28;20333;-92
2022/01/09 07:01:19;;;;;;;69.63;28.73;;;-0.40;99.90;;;;;;5016594;28;20807;-93
2022/01/09 07:03:45;;;;;;;53.67;27.90;;;-0.40;99.90;;;;;;5017213;28;20644;-92
2022/01/09 07:06:11;;;;;;;57.93;31.07;;;-0.40;99.90;;;;;;5017720;28;20691;-92
2022/01/09 07:08:37;;;;;;;70.68;29.67;;;-0.50;99.90;;;;;;5018458;28;20186;-94
2022/01/09 07:11:04;;;;;;;89.53;29.92;;;-0.40;99.90;;;;;;5017992;28;20201;-93
2022/01/09 07:13:30;;;;;;;65.55;27.13;;;-0.40;99.90;;;;;;5020884;28;20544;-94
2022/01/09 07:15:56;;;;;;;59.58;30.52;;;-0.50;99.90;;;;;;5017962;28;20201;-92
2022/01/09 07:18:22;;;;;;;58.42;27.70;;;-0.50;99.90;;;;;;5017766;28;20301;-93
2022/01/09 07:20:48;;;;;;;65.37;26.50;;;-0.60;99.90;;;;;;5017985;28;20735;-92
2022/01/09 07:23:13;;;;;;;62.47;29.17;;;-0.60;99.90;;;;;;5017967;28;20952;-94
2022/01/09 07:25:39;;;;;;;82.77;42.00;;;-0.60;99.90;;;;;;5018470;28;20630;-94
2022/01/09 07:28:05;;;;;;;78.00;39.87;;;-0.60;99.90;;;;;;5020702;28;20428;-92
2022/01/09 07:30:31;;;;;;;88.90;37.27;;;-0.60;99.90;;;;;;5017737;28;20190;-92
2022/01/09 07:32:57;;;;;;;113.47;39.90;;;-0.60;99.90;;;;;;5022731;28;20525;-94
2022/01/09 07:35:23;;;;;;;84.10;42.22;;;-0.60;99.90;;;;;;5019169;28;20195;-94
2022/01/09 07:37:49;;;;;;;87.75;40.03;;;-0.60;99.90;;;;;;5017253;28;20245;-94
2022/01/09 07:40:16;;;;;;;93.20;43.05;;;-0.60;99.90;;;;;;5037057;28;20197;-91
2022/01/09 07:42:42;;;;;;;61.03;28.63;;;-0.60;99.90;;;;;;5029979;28;20186;-94
2022/01/09 07:45:08;;;;;;;57.57;27.13;;;-0.60;99.90;;;;;;5023544;28;20225;-91
2022/01/09 07:47:37;;;;;;;68.07;33.20;;;-0.70;99.90;;;;;;5031053;28;20455;-93
2022/01/09 07:50:04;;;;;;;63.88;29.33;;;-0.70;99.90;;;;;;5037209;28;20582;-93
2022/01/09 07:52:34;;;;;;;69.85;29.67;;;-0.60;99.90;;;;;;5017340;28;20187;-93
2022/01/09 07:55:00;;;;;;;68.38;32.22;;;-0.70;99.90;;;;;;5021024;28;20205;-92
2022/01/09 07:57:25;;;;;;;60.47;32.60;;;-0.70;99.90;;;;;;5019789;28;20248;-92
2022/01/09 07:59:51;;;;;;;66.30;32.33;;;-0.70;99.90;;;;;;5017224;28;20194;-92
2022/01/09 08:02:17;;;;;;;68.27;33.27;;;-0.70;99.90;;;;;;5017683;28;20434;-93
2022/01/09 08:04:43;;;;;;;68.13;31.60;;;-0.60;99.90;;;;;;5016908;28;20190;-94
2022/01/09 08:07:08;;;;;;;76.17;38.80;;;-0.60;99.90;;;;;;5033871;28;20981;-95
2022/01/09 08:09:34;;;;;;;85.37;43.20;;;-0.60;99.90;;;;;;5032986;28;20573;-92
2022/01/09 08:12:00;;;;;;;121.03;55.10;;;-0.60;99.90;;;;;;5020398;28;20547;-94
2022/01/09 08:14:26;;;;;;;95.73;49.17;;;-0.50;99.90;;;;;;5024324;28;20201;-92
2022/01/09 08:16:51;;;;;;;84.13;43.97;;;-0.50;99.90;;;;;;5037900;28;20222;-94
2022/01/09 08:19:17;;;;;;;89.83;44.30;;;-0.40;99.90;;;;;;5044870;28;20948;-92
2022/01/09 08:21:43;;;;;;;109.40;47.05;;;-0.30;99.90;;;;;;5017116;28;20206;-93
2022/01/09 08:24:10;;;;;;;99.07;47.77;;;-0.30;99.90;;;;;;5034429;28;20221;-92
2022/01/09 08:26:36;;;;;;;100.15;48.85;;;-0.20;99.90;;;;;;5019489;28;20202;-93
2022/01/09 08:29:02;;;;;;;99.40;48.03;;;-0.20;99.90;;;;;;5026627;28;20265;-93
2022/01/09 08:31:28;;;;;;;135.05;65.13;;;-0.10;99.90;;;;;;5019231;28;20698;-93
2022/01/09 08:33:54;;;;;;;172.87;81.40;;;-0.10;99.90;;;;;;5016772;28;20175;-92
2022/01/09 08:36:19;;;;;;;117.93;59.33;;;-0.10;99.90;;;;;;5016412;28;20454;-94
2022/01/09 08:38:47;;;;;;;95.63;49.43;;;-0.10;99.90;;;;;;5016942;28;20475;-93
2022/01/09 08:41:12;;;;;;;70.22;40.38;;;0.00;99.90;;;;;;5018434;28;20230;-94
2022/01/09 08:43:39;;;;;;;61.53;33.80;;;0.00;99.90;;;;;;5016670;28;20194;-92
2022/01/09 08:46:05;;;;;;;62.53;31.58;;;-0.10;99.90;;;;;;5019341;28;20567;-92
2022/01/09 08:48:31;;;;;;;59.00;31.98;;;-0.10;99.90;;;;;;5020498;28;20641;-92
2022/01/09 08:50:56;;;;;;;54.10;31.67;;;-0.10;99.90;;;;;;5020687;28;20248;-92
2022/01/09 08:53:22;;;;;;;49.73;27.37;;;-0.10;99.90;;;;;;5025093;28;20494;-93
2022/01/09 08:55:48;;;;;;;53.80;26.17;;;-0.10;99.90;;;;;;5033135;28;20206;-93
2022/01/09 08:58:14;;;;;;;75.63;37.17;;;-0.10;99.90;;;;;;5020583;28;20285;-93
2022/01/09 09:00:40;;;;;;;64.43;33.17;;;-0.10;99.90;;;;;;5020011;28;20202;-93
2022/01/09 09:03:06;;;;;;;71.07;32.20;;;-0.10;99.90;;;;;;5020348;28;20498;-93
2022/01/09 09:05:31;;;;;;;69.20;35.97;;;-0.10;99.90;;;;;;5027732;28;20191;-92
2022/01/09 09:07:58;;;;;;;62.03;30.93;;;0.00;99.90;;;;;;5020411;28;20241;-93
2022/01/09 09:10:25;;;;;;;71.93;33.90;;;0.00;99.90;;;;;;5022636;28;20441;-91
2022/01/09 09:12:50;;;;;;;57.10;30.05;;;0.00;99.90;;;;;;5024877;28;20190;-94
2022/01/09 09:15:20;;;;;;;44.03;25.73;;;0.10;99.90;;;;;;5020310;28;20198;-93
2022/01/09 09:17:45;;;;;;;44.72;24.27;;;0.10;99.90;;;;;;5020005;28;20218;-92
2022/01/09 09:20:11;;;;;;;51.23;24.73;;;0.10;99.90;;;;;;5037506;28;20202;-93
2022/01/09 09:22:38;;;;;;;49.90;25.25;;;0.20;99.90;;;;;;5019620;28;20897;-93
2022/01/09 09:25:04;;;;;;;45.08;24.25;;;0.20;99.90;;;;;;5037281;28;20605;-94
2022/01/09 09:27:32;;;;;;;50.67;26.85;;;0.20;99.90;;;;;;5022003;28;20189;-93
2022/01/09 09:30:01;;;;;;;50.05;25.20;;;0.30;99.90;;;;;;5036180;28;20203;-93
2022/01/09 09:32:27;;;;;;;58.65;26.30;;;0.40;99.90;;;;;;5023692;28;20186;-93
2022/01/09 09:34:53;;;;;;;49.00;24.73;;;0.40;99.90;;;;;;5027538;28;20213;-92
2022/01/09 09:37:20;;;;;;;44.67;25.40;;;0.40;99.90;;;;;;5022466;28;20587;-93
2022/01/09 09:39:48;;;;;;;49.60;27.40;;;0.50;99.90;;;;;;5022111;28;20707;-92
2022/01/09 09:42:15;;;;;;;59.60;30.35;;;0.50;99.90;;;;;;5035476;28;20182;-94
2022/01/09 09:44:41;;;;;;;52.88;28.70;;;0.50;99.90;;;;;;5021108;28;20205;-92
2022/01/09 09:47:07;;;;;;;69.18;35.85;;;0.60;99.90;;;;;;5019646;28;20182;-94
2022/01/09 09:49:33;;;;;;;58.88;28.35;;;0.60;99.90;;;;;;5019400;28;20182;-93
2022/01/09 09:51:59;;;;;;;55.37;30.97;;;0.60;99.90;;;;;;5019672;28;20189;-93
2022/01/09 09:54:25;;;;;;;44.10;24.77;;;0.70;99.90;;;;;;5019271;28;20183;-94
2022/01/09 09:56:52;;;;;;;52.50;23.90;;;0.70;99.90;;;;;;5020504;28;20182;-94
2022/01/09 09:59:25;;;;;;;48.25;25.00;;;0.80;99.90;;;;;;5019002;28;20178;-93
2022/01/09 10:01:51;;;;;;;52.47;23.45;;;0.80;99.90;;;;;;5019121;28;20179;-94
2022/01/09 10:04:17;;;;;;;57.10;26.13;;;0.80;99.90;;;;;;5019102;28;20555;-94
2022/01/09 10:06:47;;;;;;;55.80;25.03;;;0.90;99.90;;;;;;5026771;28;20487;-94
2022/01/09 10:09:19;;;;;;;51.95;24.88;;;0.90;99.90;;;;;;5036598;28;20201;-94
2022/01/09 10:11:48;;;;;;;52.40;26.40;;;1.00;99.90;;;;;;5020354;28;20186;-94
2022/01/09 10:14:26;;;;;;;60.08;28.60;;;1.00;99.90;;;;;;5020166;28;20770;-93
2022/01/09 10:17:12;;;;;;;57.95;26.58;;;1.00;99.90;;;;;;5018751;28;20186;-93
2022/01/09 10:19:48;;;;;;;57.17;28.75;;;1.10;99.90;;;;;;5036359;28;20167;-95
2022/01/09 10:22:24;;;;;;;47.50;27.70;;;1.10;99.90;;;;;;5019164;28;20216;-93
2022/01/09 10:24:50;;;;;;;48.25;26.13;;;1.10;99.90;;;;;;5018580;28;20281;-94
2022/01/09 10:27:35;;;;;;;44.53;21.25;;;1.20;99.90;;;;;;5022761;28;20526;-96
2022/01/09 10:30:04;;;;;;;42.25;21.50;;;1.20;99.90;;;;;;5018578;28;20198;-92
2022/01/09 10:32:31;;;;;;;44.10;22.33;;;1.20;99.90;;;;;;5023584;28;20208;-93
2022/01/09 10:35:16;;;;;;;43.95;24.33;;;1.20;99.90;;;;;;5019551;28;20205;-94
2022/01/09 10:37:46;;;;;;;42.40;22.58;;;1.20;99.90;;;;;;5018772;28;20218;-93
2022/01/09 10:40:20;;;;;;;34.92;20.33;;;1.20;99.90;;;;;;5019933;28;20261;-92
2022/01/09 10:43:20;;;;;;;36.78;19.15;;;1.20;99.90;;;;;;5044097;28;20233;-94
2022/01/09 10:45:49;;;;;;;28.75;17.08;;;1.20;99.90;;;;;;5030914;28;20214;-94
2022/01/09 10:48:21;;;;;;;29.85;16.48;;;1.20;99.90;;;;;;5018292;28;20186;-93
2022/01/09 10:50:47;;;;;;;30.52;16.60;;;1.20;99.90;;;;;;5017879;28;20198;-95
2022/01/09 10:53:43;;;;;;;32.83;17.85;;;1.10;99.90;;;;;;5018352;28;20191;-93
2022/01/09 10:56:09;;;;;;;34.25;19.80;;;1.10;99.90;;;;;;5005198;28;20207;-95
2022/01/09 10:58:38;;;;;;;37.53;21.50;;;1.10;99.90;;;;;;5021807;28;20679;-95
2022/01/09 11:01:11;;;;;;;32.00;16.67;;;1.10;99.90;;;;;;5018209;28;20706;-92
2022/01/09 11:03:38;;;;;;;37.40;21.13;;;1.10;99.90;;;;;;5021088;28;20179;-91
2022/01/09 11:06:04;;;;;;;34.63;20.67;;;1.10;99.90;;;;;;5021207;28;20222;-94
2022/01/09 11:08:30;;;;;;;34.63;18.92;;;1.10;99.90;;;;;;5018106;28;20186;-94
2022/01/09 11:10:58;;;;;;;29.13;17.25;;;1.10;99.90;;;;;;5017985;28;20206;-94
2022/01/09 11:13:25;;;;;;;27.70;17.73;;;1.20;99.90;;;;;;5019992;28;20193;-93
2022/01/09 11:18:39;;;;;;;26.95;15.00;;;1.20;99.90;;;;;;5035813;28;20591;-95
2022/01/09 11:21:05;;;;;;;23.05;14.98;;;1.20;99.90;;;;;;5043172;28;20200;-93
2022/01/09 11:24:08;;;;;;;26.88;16.23;;;1.30;99.90;;;;;;5036854;28;20190;-93
2022/01/09 11:27:02;;;;;;;33.00;18.05;;;1.30;99.90;;;;;;5018880;28;20238;-93
2022/01/09 11:29:34;;;;;;;40.83;31.05;;;1.30;99.90;;;;;;5019375;28;20199;-95
2022/01/09 11:32:05;;;;;;;32.90;21.95;;;1.40;99.90;;;;;;5017691;28;20531;-93
2022/01/09 11:34:53;;;;;;;29.10;18.10;;;1.50;99.90;;;;;;5018511;28;20230;-96
2022/01/09 11:37:47;;;;;;;50.35;39.00;;;1.50;99.90;;;;;;5021675;28;20215;-94
2022/01/09 11:40:31;;;;;;;24.88;13.68;;;1.60;99.90;;;;;;4966235;28;20212;-92
2022/01/09 11:43:15;;;;;;;22.50;14.55;;;1.60;99.90;;;;;;5017721;28;20182;-95
2022/01/09 11:45:57;;;;;;;34.60;17.85;;;1.70;99.90;;;;;;5023157;28;20217;-92
2022/01/09 11:48:51;;;;;;;27.42;16.65;;;1.70;99.90;;;;;;5018238;28;20181;-92
2022/01/09 11:51:18;;;;;;;40.42;24.38;;;1.70;99.90;;;;;;5027589;28;20198;-93
2022/01/09 11:54:05;;;;;;;31.95;16.88;;;1.70;99.90;;;;;;5032155;28;20186;-95
2022/01/09 11:56:45;;;;;;;28.35;18.08;;;1.70;99.90;;;;;;5017437;28;20698;-94
2022/01/09 11:59:18;;;;;;;32.47;18.35;;;1.80;99.90;;;;;;5017164;28;20252;-95
2022/01/09 12:01:45;;;;;;;36.22;21.52;;;1.80;99.90;;;;;;5018823;28;20309;-92
2022/01/09 12:04:46;;;;;;;33.55;24.40;;;1.90;99.90;;;;;;5029373;28;20266;-93
2022/01/09 12:07:34;;;;;;;36.30;19.33;;;1.90;99.90;;;;;;4964845;28;20231;-95
2022/01/09 12:10:30;;;;;;;30.15;18.67;;;1.90;99.90;;;;;;5031455;28;20257;-92
2022/01/09 12:12:57;;;;;;;35.63;19.83;;;1.90;99.90;;;;;;5009165;28;20190;-95
2022/01/09 12:15:35;;;;;;;35.70;20.25;;;1.90;99.90;;;;;;5016978;28;20555;-92
2022/01/09 12:18:03;;;;;;;38.38;28.48;;;2.00;99.90;;;;;;5018132;28;20250;-92
2022/01/09 12:20:32;;;;;;;41.85;27.20;;;2.00;99.90;;;;;;5019096;28;20236;-92
2022/01/09 12:23:04;;;;;;;33.58;19.55;;;2.00;99.90;;;;;;5020949;28;20721;-92
2022/01/09 12:25:35;;;;;;;33.28;19.98;;;2.10;99.90;;;;;;5020596;28;20198;-95
2022/01/09 12:28:17;;;;;;;30.83;18.70;;;2.10;99.90;;;;;;5020799;28;20585;-93
2022/01/09 12:30:48;;;;;;;29.65;17.42;;;2.10;99.90;;;;;;5020935;28;20198;-95
2022/01/09 12:33:38;;;;;;;33.95;19.35;;;2.20;99.90;;;;;;5023302;28;20182;-92
2022/01/09 12:36:07;;;;;;;31.20;19.75;;;2.20;99.90;;;;;;5020898;28;20225;-95
2022/01/09 12:38:36;;;;;;;33.63;20.05;;;2.20;99.90;;;;;;5025263;28;20215;-93
2022/01/09 12:41:27;;;;;;;33.38;20.40;;;2.20;99.90;;;;;;5030327;28;20582;-93
2022/01/09 12:44:00;;;;;;;34.97;21.67;;;2.20;99.90;;;;;;5020751;28;20178;-95